台北 の空港の天気 - METARとTAF

台湾桃園国際空港 ( RCTP / TPE ) - 台湾 台北市
飛行場実況気象(Metar)
観測時間10/16 14:30 CST (10/16 06:30 UTC)
風向・風速北北東 6m/s
視程10km以上
天気現象
少しの雲 雲底高度 180m
全天の8割程度の雲 雲底高度 270m
全天の8割程度の雲 雲底高度 550m
気温24℃
湿度89%
気圧1012hPa
METARRCTP 160630Z 02011KT 9999 FEW006 BKN009 BKN018 24/22 Q1012 NOSIG RMK A2989
過去の天気等 Google飛行場航空写真 Wunderground天気予報

過去48時間のMETAR

飛行場予報(TAF)
発表時間: 10/16 13:00 CST (10/16 05:00 UTC)
予報対象時間: 16日14時 CST ~ 17日20時 CST
風向・風速北北東 6m/s
視程10km以上
全天の4割程度の雲 雲底高度 180m
全天の8割程度の雲 雲底高度 340m
全天の8割程度の雲 雲底高度 910m
16日16時 CST ~ 16日20時 CST に一時的に
視程5000m
天気現象
全天の4割程度の雲 雲底高度 120m
全天の8割程度の雲 雲底高度 210m
全天の8割程度の雲 雲底高度 610m
17日4時 CST ~ 17日8時 CST に一時的に
視程5000m
天気現象
全天の4割程度の雲 雲底高度 120m
全天の8割程度の雲 雲底高度 210m
全天の8割程度の雲 雲底高度 610m
17日10時 CST ~ 17日12時 CST に徐々に
風向・風速北東 9m/s
少しの雲 雲底高度 300m
全天の8割程度の雲 雲底高度 490m
全天の8割程度の雲 雲底高度 1220m
17日12時 CST ~ 17日16時 CST に一時的に
少しの雲 雲底高度 370m
全天の8割程度の雲 雲底高度 670m
全天の8割程度の雲 雲底高度 1520m
17日16時 CST ~ 17日20時 CST に一時的に
風向・風速北東 10m/s 瞬間風速 15m/s
視程5000m
天気現象
全天の4割程度の雲 雲底高度 180m
全天の8割程度の雲 雲底高度 340m
全天の8割程度の雲 雲底高度 910m
TAF RCTP 160500Z 1606/1712 02012KT 9999 SCT006 BKN011 BKN030
TEMPO 1608/1612 5000 RA SCT004 BKN007 BKN020
TEMPO 1620/1624 5000 RA SCT004 BKN007 BKN020
BECMG 1702/1704 04018KT FEW010 BKN016 BKN040
TEMPO 1704/1708 FEW012 BKN022 BKN050
TEMPO 1708/1712 05020G30KT 5000 RA SCT006 BKN011 BKN030